sensor_id;sensor_type;location;lat;lon;timestamp;P1;durP1;ratioP1;P2;durP2;ratioP2
19747;SDS011;10032;51.386;12.516;2023-12-20T00:01:40;2.57;;;2.30;;
19747;SDS011;10032;51.386;12.516;2023-12-20T00:04:06;3.27;;;2.07;;
19747;SDS011;10032;51.386;12.516;2023-12-20T00:06:31;3.37;;;2.70;;
19747;SDS011;10032;51.386;12.516;2023-12-20T00:08:57;2.90;;;2.07;;
19747;SDS011;10032;51.386;12.516;2023-12-20T00:11:25;3.40;;;3.07;;
19747;SDS011;10032;51.386;12.516;2023-12-20T00:13:50;3.83;;;2.30;;
19747;SDS011;10032;51.386;12.516;2023-12-20T00:16:16;3.47;;;2.13;;
19747;SDS011;10032;51.386;12.516;2023-12-20T00:18:42;3.63;;;3.03;;
19747;SDS011;10032;51.386;12.516;2023-12-20T00:21:07;2.60;;;2.10;;
19747;SDS011;10032;51.386;12.516;2023-12-20T00:23:32;3.20;;;2.90;;
19747;SDS011;10032;51.386;12.516;2023-12-20T00:25:58;2.53;;;2.33;;
19747;SDS011;10032;51.386;12.516;2023-12-20T00:28:23;4.13;;;2.37;;
19747;SDS011;10032;51.386;12.516;2023-12-20T00:30:49;3.07;;;2.23;;
19747;SDS011;10032;51.386;12.516;2023-12-20T00:33:14;2.57;;;2.27;;
19747;SDS011;10032;51.386;12.516;2023-12-20T00:35:39;1.97;;;1.67;;
19747;SDS011;10032;51.386;12.516;2023-12-20T00:38:05;2.17;;;1.90;;
19747;SDS011;10032;51.386;12.516;2023-12-20T00:40:32;2.97;;;2.20;;
19747;SDS011;10032;51.386;12.516;2023-12-20T00:42:58;3.00;;;2.10;;
19747;SDS011;10032;51.386;12.516;2023-12-20T00:45:23;2.10;;;1.60;;
19747;SDS011;10032;51.386;12.516;2023-12-20T00:47:48;2.10;;;1.90;;
19747;SDS011;10032;51.386;12.516;2023-12-20T00:50:14;2.30;;;1.80;;
19747;SDS011;10032;51.386;12.516;2023-12-20T00:52:39;2.30;;;1.67;;
19747;SDS011;10032;51.386;12.516;2023-12-20T00:55:05;1.77;;;1.67;;
19747;SDS011;10032;51.386;12.516;2023-12-20T00:57:31;3.07;;;2.47;;
19747;SDS011;10032;51.386;12.516;2023-12-20T00:59:56;1.90;;;1.80;;
19747;SDS011;10032;51.386;12.516;2023-12-20T01:02:21;2.80;;;2.17;;
19747;SDS011;10032;51.386;12.516;2023-12-20T01:04:47;2.37;;;1.93;;
19747;SDS011;10032;51.386;12.516;2023-12-20T01:07:12;2.80;;;2.07;;
19747;SDS011;10032;51.386;12.516;2023-12-20T01:09:38;2.50;;;2.07;;
19747;SDS011;10032;51.386;12.516;2023-12-20T01:12:03;2.10;;;1.57;;
19747;SDS011;10032;51.386;12.516;2023-12-20T01:14:28;2.00;;;1.77;;
19747;SDS011;10032;51.386;12.516;2023-12-20T01:16:54;1.77;;;1.67;;
19747;SDS011;10032;51.386;12.516;2023-12-20T01:19:19;2.30;;;1.73;;
19747;SDS011;10032;51.386;12.516;2023-12-20T01:21:45;1.67;;;1.47;;
19747;SDS011;10032;51.386;12.516;2023-12-20T01:24:10;1.90;;;1.53;;
19747;SDS011;10032;51.386;12.516;2023-12-20T01:26:35;1.43;;;1.33;;
19747;SDS011;10032;51.386;12.516;2023-12-20T01:29:01;1.37;;;1.27;;
19747;SDS011;10032;51.386;12.516;2023-12-20T01:31:26;2.03;;;1.83;;
19747;SDS011;10032;51.386;12.516;2023-12-20T01:33:52;1.33;;;1.23;;
19747;SDS011;10032;51.386;12.516;2023-12-20T01:36:17;1.73;;;1.60;;
19747;SDS011;10032;51.386;12.516;2023-12-20T01:38:43;1.50;;;1.40;;
19747;SDS011;10032;51.386;12.516;2023-12-20T01:41:08;2.60;;;2.40;;
19747;SDS011;10032;51.386;12.516;2023-12-20T01:43:34;1.40;;;1.30;;
19747;SDS011;10032;51.386;12.516;2023-12-20T01:45:59;1.50;;;1.40;;
19747;SDS011;10032;51.386;12.516;2023-12-20T01:48:25;1.20;;;1.10;;
19747;SDS011;10032;51.386;12.516;2023-12-20T01:50:53;1.30;;;1.20;;
19747;SDS011;10032;51.386;12.516;2023-12-20T01:53:20;1.70;;;1.30;;
19747;SDS011;10032;51.386;12.516;2023-12-20T01:55:49;1.10;;;1.10;;
19747;SDS011;10032;51.386;12.516;2023-12-20T01:58:17;1.43;;;1.33;;
19747;SDS011;10032;51.386;12.516;2023-12-20T02:00:43;1.27;;;1.03;;
19747;SDS011;10032;51.386;12.516;2023-12-20T02:03:09;1.13;;;1.03;;
19747;SDS011;10032;51.386;12.516;2023-12-20T02:05:35;0.87;;;0.87;;
19747;SDS011;10032;51.386;12.516;2023-12-20T02:08:02;1.30;;;1.17;;
19747;SDS011;10032;51.386;12.516;2023-12-20T02:10:27;1.90;;;1.53;;
19747;SDS011;10032;51.386;12.516;2023-12-20T02:12:54;1.03;;;1.03;;
19747;SDS011;10032;51.386;12.516;2023-12-20T02:15:20;1.63;;;1.50;;
19747;SDS011;10032;51.386;12.516;2023-12-20T02:17:46;1.50;;;1.20;;
19747;SDS011;10032;51.386;12.516;2023-12-20T02:20:13;1.17;;;1.07;;
19747;SDS011;10032;51.386;12.516;2023-12-20T02:22:39;1.77;;;1.30;;
19747;SDS011;10032;51.386;12.516;2023-12-20T02:25:04;1.20;;;1.10;;
19747;SDS011;10032;51.386;12.516;2023-12-20T02:27:30;1.30;;;1.10;;
19747;SDS011;10032;51.386;12.516;2023-12-20T02:29:56;1.30;;;1.20;;
19747;SDS011;10032;51.386;12.516;2023-12-20T02:32:22;1.23;;;1.10;;
19747;SDS011;10032;51.386;12.516;2023-12-20T02:34:51;1.80;;;1.47;;
19747;SDS011;10032;51.386;12.516;2023-12-20T02:37:16;1.30;;;1.20;;
19747;SDS011;10032;51.386;12.516;2023-12-20T02:39:41;1.20;;;1.10;;
19747;SDS011;10032;51.386;12.516;2023-12-20T02:42:07;1.37;;;1.00;;
19747;SDS011;10032;51.386;12.516;2023-12-20T02:44:32;1.77;;;1.50;;
19747;SDS011;10032;51.386;12.516;2023-12-20T02:46:58;1.30;;;1.20;;
19747;SDS011;10032;51.386;12.516;2023-12-20T02:49:23;1.17;;;1.07;;
19747;SDS011;10032;51.386;12.516;2023-12-20T02:51:48;0.83;;;0.83;;
19747;SDS011;10032;51.386;12.516;2023-12-20T02:54:14;1.30;;;1.20;;
19747;SDS011;10032;51.386;12.516;2023-12-20T02:56:39;1.50;;;1.40;;
19747;SDS011;10032;51.386;12.516;2023-12-20T02:59:05;1.10;;;1.00;;
19747;SDS011;10032;51.386;12.516;2023-12-20T03:01:31;1.47;;;1.30;;
19747;SDS011;10032;51.386;12.516;2023-12-20T03:03:56;1.40;;;1.07;;
19747;SDS011;10032;51.386;12.516;2023-12-20T03:06:22;1.40;;;1.30;;
19747;SDS011;10032;51.386;12.516;2023-12-20T03:08:47;1.50;;;1.40;;
19747;SDS011;10032;51.386;12.516;2023-12-20T03:11:13;1.20;;;1.00;;
19747;SDS011;10032;51.386;12.516;2023-12-20T03:13:38;1.13;;;1.03;;
19747;SDS011;10032;51.386;12.516;2023-12-20T03:16:10;2.00;;;1.60;;
19747;SDS011;10032;51.386;12.516;2023-12-20T03:18:36;0.90;;;0.80;;
19747;SDS011;10032;51.386;12.516;2023-12-20T03:21:02;1.40;;;1.30;;
19747;SDS011;10032;51.386;12.516;2023-12-20T03:23:29;1.60;;;1.30;;
19747;SDS011;10032;51.386;12.516;2023-12-20T03:25:55;1.27;;;1.17;;
19747;SDS011;10032;51.386;12.516;2023-12-20T03:28:21;1.27;;;1.17;;
19747;SDS011;10032;51.386;12.516;2023-12-20T03:30:46;1.07;;;0.97;;
19747;SDS011;10032;51.386;12.516;2023-12-20T03:33:11;0.90;;;0.90;;
19747;SDS011;10032;51.386;12.516;2023-12-20T03:35:37;1.43;;;1.20;;
19747;SDS011;10032;51.386;12.516;2023-12-20T03:38:02;1.23;;;1.13;;
19747;SDS011;10032;51.386;12.516;2023-12-20T03:40:28;1.40;;;1.30;;
19747;SDS011;10032;51.386;12.516;2023-12-20T03:42:53;1.30;;;1.10;;
19747;SDS011;10032;51.386;12.516;2023-12-20T03:45:19;1.50;;;1.40;;
19747;SDS011;10032;51.386;12.516;2023-12-20T03:47:44;1.27;;;1.10;;
19747;SDS011;10032;51.386;12.516;2023-12-20T03:50:09;1.53;;;1.43;;
19747;SDS011;10032;51.386;12.516;2023-12-20T03:52:35;1.23;;;1.13;;
19747;SDS011;10032;51.386;12.516;2023-12-20T03:55:00;1.50;;;1.40;;
19747;SDS011;10032;51.386;12.516;2023-12-20T03:57:26;1.50;;;1.33;;
19747;SDS011;10032;51.386;12.516;2023-12-20T03:59:51;1.43;;;1.30;;
19747;SDS011;10032;51.386;12.516;2023-12-20T04:02:16;1.77;;;1.67;;
19747;SDS011;10032;51.386;12.516;2023-12-20T04:04:43;2.13;;;1.60;;
19747;SDS011;10032;51.386;12.516;2023-12-20T04:07:08;1.10;;;1.00;;
19747;SDS011;10032;51.386;12.516;2023-12-20T04:09:34;1.30;;;1.20;;
19747;SDS011;10032;51.386;12.516;2023-12-20T04:11:59;1.47;;;1.37;;
19747;SDS011;10032;51.386;12.516;2023-12-20T04:14:24;1.60;;;1.50;;
19747;SDS011;10032;51.386;12.516;2023-12-20T04:16:50;1.40;;;1.30;;
19747;SDS011;10032;51.386;12.516;2023-12-20T04:19:15;2.00;;;1.80;;
19747;SDS011;10032;51.386;12.516;2023-12-20T04:21:40;1.80;;;1.60;;
19747;SDS011;10032;51.386;12.516;2023-12-20T04:24:06;2.10;;;1.87;;
19747;SDS011;10032;51.386;12.516;2023-12-20T04:26:31;2.07;;;1.67;;
19747;SDS011;10032;51.386;12.516;2023-12-20T04:28:57;2.07;;;1.87;;
19747;SDS011;10032;51.386;12.516;2023-12-20T04:31:22;2.07;;;1.87;;
19747;SDS011;10032;51.386;12.516;2023-12-20T04:33:48;2.10;;;2.00;;
19747;SDS011;10032;51.386;12.516;2023-12-20T04:36:13;1.90;;;1.50;;
19747;SDS011;10032;51.386;12.516;2023-12-20T04:38:39;1.57;;;1.33;;
19747;SDS011;10032;51.386;12.516;2023-12-20T04:41:04;2.37;;;1.87;;
19747;SDS011;10032;51.386;12.516;2023-12-20T04:43:29;2.37;;;2.17;;
19747;SDS011;10032;51.386;12.516;2023-12-20T04:45:55;2.13;;;1.70;;
19747;SDS011;10032;51.386;12.516;2023-12-20T04:48:20;1.90;;;1.33;;
19747;SDS011;10032;51.386;12.516;2023-12-20T04:50:46;2.13;;;1.80;;
19747;SDS011;10032;51.386;12.516;2023-12-20T04:53:11;2.53;;;2.10;;
19747;SDS011;10032;51.386;12.516;2023-12-20T04:55:36;4.03;;;2.63;;
19747;SDS011;10032;51.386;12.516;2023-12-20T04:58:02;2.57;;;2.33;;
19747;SDS011;10032;51.386;12.516;2023-12-20T05:00:27;2.70;;;1.87;;
19747;SDS011;10032;51.386;12.516;2023-12-20T05:02:53;2.57;;;2.00;;
19747;SDS011;10032;51.386;12.516;2023-12-20T05:05:18;2.33;;;1.83;;
19747;SDS011;10032;51.386;12.516;2023-12-20T05:07:44;1.70;;;1.60;;
19747;SDS011;10032;51.386;12.516;2023-12-20T05:10:09;2.47;;;2.27;;
19747;SDS011;10032;51.386;12.516;2023-12-20T05:12:35;1.90;;;1.70;;
19747;SDS011;10032;51.386;12.516;2023-12-20T05:15:00;3.33;;;2.00;;
19747;SDS011;10032;51.386;12.516;2023-12-20T05:17:26;2.13;;;1.77;;
19747;SDS011;10032;51.386;12.516;2023-12-20T05:19:51;3.43;;;2.30;;
19747;SDS011;10032;51.386;12.516;2023-12-20T05:22:17;3.27;;;2.33;;
19747;SDS011;10032;51.386;12.516;2023-12-20T05:24:44;1.90;;;1.60;;
19747;SDS011;10032;51.386;12.516;2023-12-20T05:27:09;2.80;;;2.20;;
19747;SDS011;10032;51.386;12.516;2023-12-20T05:29:35;2.80;;;1.90;;
19747;SDS011;10032;51.386;12.516;2023-12-20T05:32:00;1.90;;;1.80;;
19747;SDS011;10032;51.386;12.516;2023-12-20T05:34:25;2.20;;;2.00;;
19747;SDS011;10032;51.386;12.516;2023-12-20T05:36:51;1.80;;;1.70;;
19747;SDS011;10032;51.386;12.516;2023-12-20T05:39:16;1.97;;;1.87;;
19747;SDS011;10032;51.386;12.516;2023-12-20T05:41:41;2.53;;;2.13;;
19747;SDS011;10032;51.386;12.516;2023-12-20T05:44:07;1.80;;;1.60;;
19747;SDS011;10032;51.386;12.516;2023-12-20T05:46:32;1.97;;;1.60;;
19747;SDS011;10032;51.386;12.516;2023-12-20T05:48:58;3.60;;;2.03;;
19747;SDS011;10032;51.386;12.516;2023-12-20T05:51:23;1.60;;;1.50;;
19747;SDS011;10032;51.386;12.516;2023-12-20T05:53:49;2.10;;;1.90;;
19747;SDS011;10032;51.386;12.516;2023-12-20T05:56:15;2.17;;;1.80;;
19747;SDS011;10032;51.386;12.516;2023-12-20T05:58:40;1.73;;;1.63;;
19747;SDS011;10032;51.386;12.516;2023-12-20T06:01:06;2.90;;;2.00;;
19747;SDS011;10032;51.386;12.516;2023-12-20T06:03:33;2.10;;;1.90;;
19747;SDS011;10032;51.386;12.516;2023-12-20T06:05:58;2.33;;;2.13;;
19747;SDS011;10032;51.386;12.516;2023-12-20T06:08:25;1.93;;;1.57;;
19747;SDS011;10032;51.386;12.516;2023-12-20T06:10:50;2.13;;;1.90;;
19747;SDS011;10032;51.386;12.516;2023-12-20T06:13:16;3.03;;;2.17;;
19747;SDS011;10032;51.386;12.516;2023-12-20T06:15:42;2.63;;;2.27;;
19747;SDS011;10032;51.386;12.516;2023-12-20T06:18:07;2.77;;;1.77;;
19747;SDS011;10032;51.386;12.516;2023-12-20T06:20:32;1.33;;;1.23;;
19747;SDS011;10032;51.386;12.516;2023-12-20T06:22:58;2.20;;;2.00;;
19747;SDS011;10032;51.386;12.516;2023-12-20T06:25:24;2.27;;;1.87;;
19747;SDS011;10032;51.386;12.516;2023-12-20T06:27:49;2.43;;;2.23;;
19747;SDS011;10032;51.386;12.516;2023-12-20T06:30:15;2.10;;;1.57;;
19747;SDS011;10032;51.386;12.516;2023-12-20T06:32:41;1.80;;;1.70;;
19747;SDS011;10032;51.386;12.516;2023-12-20T06:35:07;2.47;;;2.03;;
19747;SDS011;10032;51.386;12.516;2023-12-20T06:37:33;2.03;;;1.83;;
19747;SDS011;10032;51.386;12.516;2023-12-20T06:39:59;3.17;;;2.20;;
19747;SDS011;10032;51.386;12.516;2023-12-20T06:42:24;2.30;;;1.77;;
19747;SDS011;10032;51.386;12.516;2023-12-20T06:44:49;2.93;;;2.40;;
19747;SDS011;10032;51.386;12.516;2023-12-20T06:47:15;2.97;;;2.37;;
19747;SDS011;10032;51.386;12.516;2023-12-20T06:49:40;3.33;;;2.10;;
19747;SDS011;10032;51.386;12.516;2023-12-20T06:52:06;3.77;;;2.33;;
19747;SDS011;10032;51.386;12.516;2023-12-20T06:54:31;2.63;;;2.40;;
19747;SDS011;10032;51.386;12.516;2023-12-20T06:56:59;2.20;;;1.90;;
19747;SDS011;10032;51.386;12.516;2023-12-20T06:59:24;4.87;;;2.80;;
19747;SDS011;10032;51.386;12.516;2023-12-20T07:01:50;3.43;;;2.60;;
19747;SDS011;10032;51.386;12.516;2023-12-20T07:04:16;2.37;;;2.10;;
19747;SDS011;10032;51.386;12.516;2023-12-20T07:06:46;3.57;;;2.10;;
19747;SDS011;10032;51.386;12.516;2023-12-20T07:09:13;2.00;;;1.80;;
19747;SDS011;10032;51.386;12.516;2023-12-20T07:11:39;2.50;;;2.30;;
19747;SDS011;10032;51.386;12.516;2023-12-20T07:14:04;2.63;;;2.33;;
19747;SDS011;10032;51.386;12.516;2023-12-20T07:16:30;2.57;;;1.77;;
19747;SDS011;10032;51.386;12.516;2023-12-20T07:18:55;2.60;;;2.03;;
19747;SDS011;10032;51.386;12.516;2023-12-20T07:21:22;1.83;;;1.73;;
19747;SDS011;10032;51.386;12.516;2023-12-20T07:23:47;3.47;;;2.30;;
19747;SDS011;10032;51.386;12.516;2023-12-20T07:26:13;2.20;;;2.00;;
19747;SDS011;10032;51.386;12.516;2023-12-20T07:28:38;4.57;;;2.13;;
19747;SDS011;10032;51.386;12.516;2023-12-20T07:31:04;3.40;;;1.97;;
19747;SDS011;10032;51.386;12.516;2023-12-20T07:33:29;2.87;;;2.30;;
19747;SDS011;10032;51.386;12.516;2023-12-20T07:35:55;2.37;;;2.20;;
19747;SDS011;10032;51.386;12.516;2023-12-20T07:38:20;2.10;;;1.57;;
19747;SDS011;10032;51.386;12.516;2023-12-20T07:40:45;1.60;;;1.50;;
19747;SDS011;10032;51.386;12.516;2023-12-20T07:43:11;2.37;;;1.80;;
19747;SDS011;10032;51.386;12.516;2023-12-20T07:45:36;2.40;;;1.60;;
19747;SDS011;10032;51.386;12.516;2023-12-20T07:48:03;1.90;;;1.37;;
19747;SDS011;10032;51.386;12.516;2023-12-20T07:50:29;2.07;;;1.37;;
19747;SDS011;10032;51.386;12.516;2023-12-20T07:52:54;1.13;;;1.03;;
19747;SDS011;10032;51.386;12.516;2023-12-20T07:55:19;1.30;;;1.20;;
19747;SDS011;10032;51.386;12.516;2023-12-20T07:57:45;1.40;;;1.30;;
19747;SDS011;10032;51.386;12.516;2023-12-20T08:00:10;3.10;;;1.00;;
19747;SDS011;10032;51.386;12.516;2023-12-20T08:02:36;1.47;;;1.23;;
19747;SDS011;10032;51.386;12.516;2023-12-20T08:05:01;1.53;;;1.43;;
19747;SDS011;10032;51.386;12.516;2023-12-20T08:07:27;2.07;;;1.70;;
19747;SDS011;10032;51.386;12.516;2023-12-20T08:09:52;2.67;;;1.87;;
19747;SDS011;10032;51.386;12.516;2023-12-20T08:12:19;1.73;;;1.60;;
19747;SDS011;10032;51.386;12.516;2023-12-20T08:14:45;2.20;;;1.23;;
19747;SDS011;10032;51.386;12.516;2023-12-20T08:17:11;1.40;;;1.30;;
19747;SDS011;10032;51.386;12.516;2023-12-20T08:19:37;0.90;;;0.87;;
19747;SDS011;10032;51.386;12.516;2023-12-20T08:22:03;2.50;;;1.63;;
19747;SDS011;10032;51.386;12.516;2023-12-20T08:24:29;1.90;;;1.80;;
19747;SDS011;10032;51.386;12.516;2023-12-20T08:26:54;1.57;;;1.47;;
19747;SDS011;10032;51.386;12.516;2023-12-20T08:29:20;1.03;;;1.03;;
19747;SDS011;10032;51.386;12.516;2023-12-20T08:31:46;1.70;;;1.10;;
19747;SDS011;10032;51.386;12.516;2023-12-20T08:34:11;2.00;;;1.80;;
19747;SDS011;10032;51.386;12.516;2023-12-20T08:36:39;3.53;;;1.20;;
19747;SDS011;10032;51.386;12.516;2023-12-20T08:39:04;1.23;;;1.13;;
19747;SDS011;10032;51.386;12.516;2023-12-20T08:41:32;0.80;;;0.80;;
19747;SDS011;10032;51.386;12.516;2023-12-20T08:43:57;2.37;;;1.23;;
19747;SDS011;10032;51.386;12.516;2023-12-20T08:46:23;1.90;;;1.70;;
19747;SDS011;10032;51.386;12.516;2023-12-20T08:48:48;1.43;;;1.33;;
19747;SDS011;10032;51.386;12.516;2023-12-20T08:51:13;0.93;;;0.80;;
19747;SDS011;10032;51.386;12.516;2023-12-20T08:53:39;1.97;;;1.23;;
19747;SDS011;10032;51.386;12.516;2023-12-20T08:56:04;2.17;;;1.53;;
19747;SDS011;10032;51.386;12.516;2023-12-20T08:58:30;1.40;;;1.30;;
19747;SDS011;10032;51.386;12.516;2023-12-20T09:00:55;2.57;;;1.67;;
19747;SDS011;10032;51.386;12.516;2023-12-20T09:03:22;2.17;;;1.03;;
19747;SDS011;10032;51.386;12.516;2023-12-20T09:05:47;1.53;;;1.37;;
19747;SDS011;10032;51.386;12.516;2023-12-20T09:08:13;1.10;;;1.00;;
19747;SDS011;10032;51.386;12.516;2023-12-20T09:10:38;1.90;;;1.20;;
19747;SDS011;10032;51.386;12.516;2023-12-20T09:13:03;1.40;;;1.30;;
19747;SDS011;10032;51.386;12.516;2023-12-20T09:15:29;1.87;;;1.53;;
19747;SDS011;10032;51.386;12.516;2023-12-20T09:17:55;1.20;;;1.07;;
19747;SDS011;10032;51.386;12.516;2023-12-20T09:20:21;2.47;;;1.33;;
19747;SDS011;10032;51.386;12.516;2023-12-20T09:22:48;1.47;;;1.30;;
19747;SDS011;10032;51.386;12.516;2023-12-20T09:25:13;1.60;;;0.93;;
19747;SDS011;10032;51.386;12.516;2023-12-20T09:27:40;1.20;;;1.10;;
19747;SDS011;10032;51.386;12.516;2023-12-20T09:30:06;1.40;;;1.27;;
19747;SDS011;10032;51.386;12.516;2023-12-20T09:32:32;2.03;;;1.40;;
19747;SDS011;10032;51.386;12.516;2023-12-20T09:34:58;3.30;;;1.80;;
19747;SDS011;10032;51.386;12.516;2023-12-20T09:37:26;2.60;;;1.20;;
19747;SDS011;10032;51.386;12.516;2023-12-20T09:39:51;1.27;;;1.17;;
19747;SDS011;10032;51.386;12.516;2023-12-20T09:42:17;1.30;;;1.20;;
19747;SDS011;10032;51.386;12.516;2023-12-20T09:44:57;1.50;;;1.40;;
19747;SDS011;10032;51.386;12.516;2023-12-20T09:47:26;1.30;;;1.20;;
19747;SDS011;10032;51.386;12.516;2023-12-20T09:49:52;1.63;;;1.17;;
19747;SDS011;10032;51.386;12.516;2023-12-20T09:52:19;1.47;;;1.37;;
19747;SDS011;10032;51.386;12.516;2023-12-20T09:54:46;1.60;;;1.10;;
19747;SDS011;10032;51.386;12.516;2023-12-20T09:57:16;1.27;;;1.20;;
19747;SDS011;10032;51.386;12.516;2023-12-20T09:59:41;1.93;;;1.83;;
19747;SDS011;10032;51.386;12.516;2023-12-20T10:02:08;1.77;;;1.67;;
19747;SDS011;10032;51.386;12.516;2023-12-20T10:04:37;3.23;;;1.70;;
19747;SDS011;10032;51.386;12.516;2023-12-20T10:07:05;1.70;;;1.60;;
19747;SDS011;10032;51.386;12.516;2023-12-20T10:09:31;1.63;;;1.30;;
19747;SDS011;10032;51.386;12.516;2023-12-20T10:11:57;1.83;;;1.30;;
19747;SDS011;10032;51.386;12.516;2023-12-20T10:14:23;4.00;;;1.70;;
19747;SDS011;10032;51.386;12.516;2023-12-20T10:16:48;1.37;;;1.27;;
19747;SDS011;10032;51.386;12.516;2023-12-20T10:19:16;2.57;;;1.70;;
19747;SDS011;10032;51.386;12.516;2023-12-20T10:21:42;2.73;;;1.60;;
19747;SDS011;10032;51.386;12.516;2023-12-20T10:24:08;5.07;;;2.00;;
19747;SDS011;10032;51.386;12.516;2023-12-20T10:26:33;5.77;;;2.00;;
19747;SDS011;10032;51.386;12.516;2023-12-20T10:29:01;2.60;;;2.13;;
19747;SDS011;10032;51.386;12.516;2023-12-20T10:31:30;3.03;;;1.80;;
19747;SDS011;10032;51.386;12.516;2023-12-20T10:33:57;2.87;;;1.60;;
19747;SDS011;10032;51.386;12.516;2023-12-20T10:36:24;1.77;;;1.60;;
19747;SDS011;10032;51.386;12.516;2023-12-20T10:38:52;3.50;;;2.43;;
19747;SDS011;10032;51.386;12.516;2023-12-20T10:41:18;1.57;;;1.30;;
19747;SDS011;10032;51.386;12.516;2023-12-20T10:43:59;2.50;;;1.83;;
19747;SDS011;10032;51.386;12.516;2023-12-20T10:46:26;3.03;;;1.50;;
19747;SDS011;10032;51.386;12.516;2023-12-20T10:48:53;1.30;;;1.20;;
19747;SDS011;10032;51.386;12.516;2023-12-20T10:51:20;2.23;;;2.07;;
19747;SDS011;10032;51.386;12.516;2023-12-20T10:53:47;2.30;;;1.50;;
19747;SDS011;10032;51.386;12.516;2023-12-20T10:56:15;0.90;;;0.80;;
19747;SDS011;10032;51.386;12.516;2023-12-20T10:58:45;1.97;;;1.23;;
19747;SDS011;10032;51.386;12.516;2023-12-20T11:01:15;4.53;;;1.90;;
19747;SDS011;10032;51.386;12.516;2023-12-20T11:03:50;2.50;;;1.50;;
19747;SDS011;10032;51.386;12.516;2023-12-20T11:06:41;1.70;;;1.20;;
19747;SDS011;10032;51.386;12.516;2023-12-20T11:09:29;1.27;;;1.17;;
19747;SDS011;10032;51.386;12.516;2023-12-20T11:12:16;3.80;;;1.50;;
19747;SDS011;10032;51.386;12.516;2023-12-20T11:14:46;2.33;;;1.60;;
19747;SDS011;10032;51.386;12.516;2023-12-20T11:17:14;2.37;;;1.90;;
19747;SDS011;10032;51.386;12.516;2023-12-20T11:20:34;2.87;;;1.13;;
19747;SDS011;10032;51.386;12.516;2023-12-20T11:22:31;1.30;;;1.13;;
19747;SDS011;10032;51.386;12.516;2023-12-20T11:25:04;1.27;;;1.17;;
19747;SDS011;10032;51.386;12.516;2023-12-20T11:27:34;1.57;;;1.33;;
19747;SDS011;10032;51.386;12.516;2023-12-20T11:30:02;3.40;;;1.30;;
19747;SDS011;10032;51.386;12.516;2023-12-20T11:32:31;1.20;;;1.10;;
19747;SDS011;10032;51.386;12.516;2023-12-20T11:35:00;3.43;;;2.03;;
19747;SDS011;10032;51.386;12.516;2023-12-20T11:37:34;2.50;;;1.50;;
19747;SDS011;10032;51.386;12.516;2023-12-20T11:40:02;1.83;;;1.53;;
19747;SDS011;10032;51.386;12.516;2023-12-20T11:42:28;2.93;;;1.90;;
19747;SDS011;10032;51.386;12.516;2023-12-20T11:44:59;0.90;;;0.90;;
19747;SDS011;10032;51.386;12.516;2023-12-20T11:47:28;3.63;;;1.57;;
19747;SDS011;10032;51.386;12.516;2023-12-20T11:49:55;1.07;;;0.97;;
19747;SDS011;10032;51.386;12.516;2023-12-20T11:52:21;1.77;;;1.67;;
19747;SDS011;10032;51.386;12.516;2023-12-20T11:54:46;3.70;;;1.27;;
19747;SDS011;10032;51.386;12.516;2023-12-20T11:57:13;2.97;;;1.13;;
19747;SDS011;10032;51.386;12.516;2023-12-20T11:59:38;1.77;;;1.10;;
19747;SDS011;10032;51.386;12.516;2023-12-20T12:02:04;1.33;;;1.23;;
19747;SDS011;10032;51.386;12.516;2023-12-20T12:04:29;2.17;;;1.30;;
19747;SDS011;10032;51.386;12.516;2023-12-20T12:06:54;1.70;;;1.40;;
19747;SDS011;10032;51.386;12.516;2023-12-20T12:09:20;3.97;;;1.50;;
19747;SDS011;10032;51.386;12.516;2023-12-20T12:11:45;1.67;;;1.57;;
19747;SDS011;10032;51.386;12.516;2023-12-20T12:14:11;3.93;;;1.80;;
19747;SDS011;10032;51.386;12.516;2023-12-20T12:16:36;2.10;;;1.90;;
19747;SDS011;10032;51.386;12.516;2023-12-20T12:19:02;3.07;;;1.97;;
19747;SDS011;10032;51.386;12.516;2023-12-20T12:21:29;1.77;;;1.43;;
19747;SDS011;10032;51.386;12.516;2023-12-20T12:24:03;2.57;;;1.80;;
19747;SDS011;10032;51.386;12.516;2023-12-20T12:26:31;2.43;;;1.20;;
19747;SDS011;10032;51.386;12.516;2023-12-20T12:28:57;1.07;;;1.00;;
19747;SDS011;10032;51.386;12.516;2023-12-20T12:31:22;4.17;;;1.10;;
19747;SDS011;10032;51.386;12.516;2023-12-20T12:33:50;1.33;;;1.10;;
19747;SDS011;10032;51.386;12.516;2023-12-20T12:36:16;2.60;;;1.10;;
19747;SDS011;10032;51.386;12.516;2023-12-20T12:38:42;1.70;;;1.30;;
19747;SDS011;10032;51.386;12.516;2023-12-20T12:41:08;1.20;;;1.10;;
19747;SDS011;10032;51.386;12.516;2023-12-20T12:43:35;2.07;;;1.50;;
19747;SDS011;10032;51.386;12.516;2023-12-20T12:46:00;1.53;;;1.20;;
19747;SDS011;10032;51.386;12.516;2023-12-20T12:48:26;1.80;;;1.17;;
19747;SDS011;10032;51.386;12.516;2023-12-20T12:50:53;1.83;;;1.23;;
19747;SDS011;10032;51.386;12.516;2023-12-20T12:53:19;3.20;;;1.60;;
19747;SDS011;10032;51.386;12.516;2023-12-20T12:55:44;1.73;;;1.57;;
19747;SDS011;10032;51.386;12.516;2023-12-20T12:58:11;2.60;;;1.13;;
19747;SDS011;10032;51.386;12.516;2023-12-20T13:00:36;1.00;;;1.00;;
19747;SDS011;10032;51.386;12.516;2023-12-20T13:03:02;2.33;;;1.70;;
19747;SDS011;10032;51.386;12.516;2023-12-20T13:05:27;2.87;;;1.80;;
19747;SDS011;10032;51.386;12.516;2023-12-20T13:07:54;2.97;;;1.27;;
19747;SDS011;10032;51.386;12.516;2023-12-20T13:10:19;2.23;;;1.63;;
19747;SDS011;10032;51.386;12.516;2023-12-20T13:12:45;4.83;;;1.83;;
19747;SDS011;10032;51.386;12.516;2023-12-20T13:15:10;2.63;;;1.77;;
19747;SDS011;10032;51.386;12.516;2023-12-20T13:17:36;1.97;;;1.23;;
19747;SDS011;10032;51.386;12.516;2023-12-20T13:20:02;2.03;;;1.10;;
19747;SDS011;10032;51.386;12.516;2023-12-20T13:22:28;1.57;;;1.47;;
19747;SDS011;10032;51.386;12.516;2023-12-20T13:24:53;1.30;;;1.20;;
19747;SDS011;10032;51.386;12.516;2023-12-20T13:27:18;1.20;;;1.10;;
19747;SDS011;10032;51.386;12.516;2023-12-20T13:29:44;1.73;;;1.10;;
19747;SDS011;10032;51.386;12.516;2023-12-20T13:32:09;1.10;;;1.00;;
19747;SDS011;10032;51.386;12.516;2023-12-20T13:34:34;1.10;;;1.00;;
19747;SDS011;10032;51.386;12.516;2023-12-20T13:37:00;1.30;;;1.20;;
19747;SDS011;10032;51.386;12.516;2023-12-20T13:39:26;0.90;;;0.90;;
19747;SDS011;10032;51.386;12.516;2023-12-20T13:41:51;2.83;;;1.50;;
19747;SDS011;10032;51.386;12.516;2023-12-20T13:44:17;1.97;;;1.83;;
19747;SDS011;10032;51.386;12.516;2023-12-20T13:46:42;0.67;;;0.67;;
19747;SDS011;10032;51.386;12.516;2023-12-20T13:49:08;1.47;;;1.30;;
19747;SDS011;10032;51.386;12.516;2023-12-20T13:51:33;2.73;;;1.57;;
19747;SDS011;10032;51.386;12.516;2023-12-20T13:53:59;1.73;;;1.30;;
19747;SDS011;10032;51.386;12.516;2023-12-20T13:56:25;1.17;;;1.07;;
19747;SDS011;10032;51.386;12.516;2023-12-20T13:58:51;3.77;;;1.80;;
19747;SDS011;10032;51.386;12.516;2023-12-20T14:01:16;1.93;;;1.47;;
19747;SDS011;10032;51.386;12.516;2023-12-20T14:03:42;5.40;;;1.50;;
19747;SDS011;10032;51.386;12.516;2023-12-20T14:06:07;1.40;;;1.13;;
19747;SDS011;10032;51.386;12.516;2023-12-20T14:08:33;1.40;;;1.10;;
19747;SDS011;10032;51.386;12.516;2023-12-20T14:10:59;1.40;;;1.30;;
19747;SDS011;10032;51.386;12.516;2023-12-20T14:13:26;1.27;;;1.17;;
19747;SDS011;10032;51.386;12.516;2023-12-20T14:15:51;1.97;;;1.07;;
19747;SDS011;10032;51.386;12.516;2023-12-20T14:18:17;0.90;;;0.90;;
19747;SDS011;10032;51.386;12.516;2023-12-20T14:20:43;1.50;;;1.00;;
19747;SDS011;10032;51.386;12.516;2023-12-20T14:23:09;4.37;;;1.77;;
19747;SDS011;10032;51.386;12.516;2023-12-20T14:25:34;1.10;;;1.03;;
19747;SDS011;10032;51.386;12.516;2023-12-20T14:28:02;0.97;;;0.90;;